Time;durP1;ratioP1;P1;durP2;ratioP2;P2;SDS_P1;SDS_P2;PMS_P1;PMS_P2;Temp;Humidity;BMP_temperature;BMP_pressure;BME280_temperature;BME280_humidity;BME280_pressure;Samples;Min_cycle;Max_cycle;Signal;HPM_P1;HPM_P2
2021/12/30 00:00:56;;;;;;;25.80;5.35;;;8.20;99.90;;;;;;5113646;28;20035;-70
2021/12/30 00:03:22;;;;;;;24.35;5.03;;;8.20;99.90;;;;;;5115248;28;20047;-70
2021/12/30 00:05:48;;;;;;;34.35;7.00;;;8.10;99.90;;;;;;5113469;28;20079;-70
2021/12/30 00:08:14;;;;;;;30.45;5.78;;;8.10;99.90;;;;;;5113853;28;20075;-70
2021/12/30 00:10:41;;;;;;;27.40;5.70;;;8.10;99.90;;;;;;5114658;28;20031;-70
2021/12/30 00:13:07;;;;;;;27.77;5.82;;;8.10;99.90;;;;;;5113075;28;20050;-70
2021/12/30 00:15:34;;;;;;;30.60;6.72;;;8.10;99.90;;;;;;5114109;28;20487;-70
2021/12/30 00:18:02;;;;;;;31.63;6.38;;;8.10;99.90;;;;;;5114352;28;20031;-70
2021/12/30 00:20:27;;;;;;;32.20;6.43;;;8.10;99.90;;;;;;5114887;28;20467;-70
2021/12/30 00:22:53;;;;;;;25.75;6.10;;;8.10;99.90;;;;;;5114404;28;20123;-70
2021/12/30 00:25:19;;;;;;;36.50;7.07;;;8.00;99.90;;;;;;5114338;28;20040;-70
2021/12/30 00:27:46;;;;;;;32.78;7.00;;;8.10;99.90;;;;;;5114183;28;20036;-70
2021/12/30 00:30:14;;;;;;;35.40;7.28;;;8.10;99.90;;;;;;5112779;28;20044;-70
2021/12/30 00:32:40;;;;;;;33.10;7.32;;;8.10;99.90;;;;;;5114619;28;20043;-70
2021/12/30 00:35:06;;;;;;;42.00;7.70;;;8.10;99.90;;;;;;5114059;28;20080;-70
2021/12/30 00:37:32;;;;;;;49.35;9.70;;;8.10;99.90;;;;;;5112313;28;20044;-70
2021/12/30 00:39:58;;;;;;;47.42;8.55;;;8.20;99.90;;;;;;5112877;28;20428;-70
2021/12/30 00:42:23;;;;;;;33.75;7.60;;;8.10;99.90;;;;;;5114570;28;20035;-70
2021/12/30 00:44:49;;;;;;;38.15;8.95;;;8.10;99.90;;;;;;5113784;28;20376;-70
2021/12/30 00:47:14;;;;;;;46.20;8.35;;;8.10;99.90;;;;;;5113891;28;20075;-70
2021/12/30 00:49:40;;;;;;;46.50;9.10;;;8.10;99.90;;;;;;5114403;28;20120;-70
2021/12/30 00:52:06;;;;;;;43.60;8.93;;;8.20;99.90;;;;;;5114394;28;20054;-70
2021/12/30 00:54:31;;;;;;;55.85;8.13;;;8.10;99.90;;;;;;5113957;28;20035;-70
2021/12/30 00:56:59;;;;;;;53.05;9.05;;;8.10;99.90;;;;;;5097707;28;20028;-70
2021/12/30 00:59:25;;;;;;;49.00;7.15;;;8.10;99.90;;;;;;5093671;28;20044;-70
2021/12/30 01:01:50;;;;;;;46.63;9.05;;;8.20;99.90;;;;;;5093438;28;20039;-70
2021/12/30 01:04:20;;;;;;;45.85;10.50;;;8.10;99.90;;;;;;5093637;28;20079;-70
2021/12/30 01:06:46;;;;;;;53.00;9.48;;;8.10;99.90;;;;;;5093555;28;20126;-70
2021/12/30 01:09:11;;;;;;;41.45;8.02;;;8.10;99.90;;;;;;5093448;28;20127;-71
2021/12/30 01:11:37;;;;;;;40.20;8.63;;;8.00;99.90;;;;;;5092278;28;20036;-71
2021/12/30 01:14:14;;;;;;;42.53;8.27;;;8.10;99.90;;;;;;5093719;28;20039;-69
2021/12/30 01:16:42;;;;;;;40.33;7.75;;;8.00;99.90;;;;;;5093296;28;20032;-70
2021/12/30 01:19:42;;;;;;;38.13;8.73;;;7.90;99.90;;;;;;5075301;28;20499;-69
2021/12/30 01:22:01;;;;;;;52.42;7.90;;;7.90;99.90;;;;;;5093345;28;20466;-69
2021/12/30 01:24:27;;;;;;;56.08;10.55;;;7.90;99.90;;;;;;5092146;28;20087;-69
2021/12/30 01:26:53;;;;;;;42.30;7.32;;;7.90;99.90;;;;;;5093188;28;20399;-70
2021/12/30 01:29:18;;;;;;;50.28;8.52;;;7.80;99.90;;;;;;5093908;28;20055;-69
2021/12/30 01:31:44;;;;;;;52.28;8.93;;;7.80;99.90;;;;;;5092615;28;20040;-70
2021/12/30 01:34:09;;;;;;;33.22;8.13;;;7.80;99.90;;;;;;5093552;28;20036;-70
2021/12/30 01:36:35;;;;;;;40.90;7.22;;;7.70;99.90;;;;;;5091759;28;20048;-70
2021/12/30 01:39:01;;;;;;;39.95;7.88;;;7.60;99.90;;;;;;5093889;28;20039;-70
2021/12/30 01:41:27;;;;;;;44.42;8.70;;;7.60;99.90;;;;;;5092332;28;20037;-70
2021/12/30 01:43:52;;;;;;;46.47;8.43;;;7.60;99.90;;;;;;5093695;28;20032;-70
2021/12/30 01:46:18;;;;;;;45.42;8.68;;;7.60;99.90;;;;;;5092792;28;20510;-70
2021/12/30 01:48:44;;;;;;;48.75;8.38;;;7.60;99.90;;;;;;5091572;28;20040;-70
2021/12/30 01:51:10;;;;;;;55.30;9.05;;;7.60;99.90;;;;;;5092857;28;20050;-70
2021/12/30 01:53:36;;;;;;;38.92;8.50;;;7.50;99.90;;;;;;5093281;28;20094;-70
2021/12/30 01:56:04;;;;;;;48.38;9.85;;;7.50;99.90;;;;;;5093997;28;20032;-70
2021/12/30 01:58:30;;;;;;;48.67;9.50;;;7.60;99.90;;;;;;5096173;28;20044;-70
2021/12/30 02:00:56;;;;;;;56.00;9.68;;;7.60;99.90;;;;;;5095963;28;20056;-70
2021/12/30 02:03:22;;;;;;;51.20;9.80;;;7.50;99.90;;;;;;5096779;28;20048;-70
2021/12/30 02:05:48;;;;;;;51.97;8.18;;;7.50;99.90;;;;;;5096406;28;20430;-70
2021/12/30 02:08:16;;;;;;;49.55;9.27;;;7.60;99.90;;;;;;5095211;28;20044;-70
2021/12/30 02:10:43;;;;;;;48.17;10.23;;;7.60;99.90;;;;;;5096351;28;20036;-70
2021/12/30 02:13:11;;;;;;;53.63;10.02;;;7.70;99.90;;;;;;5096316;28;20048;-70
2021/12/30 02:15:37;;;;;;;55.60;9.13;;;7.60;99.90;;;;;;5095808;28;20058;-70
2021/12/30 02:18:03;;;;;;;41.40;9.18;;;7.70;99.90;;;;;;5095672;28;20151;-70
2021/12/30 02:20:43;;;;;;;52.35;9.25;;;7.60;99.90;;;;;;5094992;28;20043;-70
2021/12/30 02:23:09;;;;;;;46.40;9.43;;;7.60;99.90;;;;;;5096807;28;20125;-70
2021/12/30 02:25:35;;;;;;;55.20;9.18;;;7.60;99.90;;;;;;5096358;28;20423;-70
2021/12/30 02:28:05;;;;;;;54.65;10.02;;;7.70;99.90;;;;;;5096377;28;20466;-70
2021/12/30 02:30:31;;;;;;;49.50;8.15;;;7.60;99.90;;;;;;5096167;28;20107;-70
2021/12/30 02:32:57;;;;;;;45.80;8.25;;;7.60;99.90;;;;;;5094704;28;20047;-70
2021/12/30 02:35:22;;;;;;;45.70;10.00;;;7.70;99.90;;;;;;5094889;28;20043;-70
2021/12/30 02:37:50;;;;;;;51.33;10.05;;;7.60;99.90;;;;;;5094453;28;20544;-70
2021/12/30 02:40:27;;;;;;;40.58;8.73;;;7.60;99.90;;;;;;5094515;28;20424;-70
2021/12/30 02:42:53;;;;;;;57.55;8.77;;;7.60;99.90;;;;;;5095936;28;20491;-70
2021/12/30 02:45:19;;;;;;;49.38;8.55;;;7.60;99.90;;;;;;5078346;28;20043;-70
2021/12/30 02:47:44;;;;;;;47.63;10.52;;;7.60;99.90;;;;;;5094099;28;20044;-70
2021/12/30 02:50:10;;;;;;;52.65;10.93;;;7.60;99.90;;;;;;5096257;28;20048;-70
2021/12/30 02:52:36;;;;;;;38.88;8.90;;;7.60;99.90;;;;;;5095987;28;20121;-70
2021/12/30 02:55:02;;;;;;;57.83;10.43;;;7.60;99.90;;;;;;5096239;28;20036;-70
2021/12/30 02:57:27;;;;;;;56.50;10.38;;;7.70;99.90;;;;;;5095578;28;20417;-70
2021/12/30 02:59:53;;;;;;;43.60;9.60;;;7.60;99.90;;;;;;5095741;28;20118;-70
2021/12/30 03:02:18;;;;;;;59.05;10.60;;;7.60;99.90;;;;;;5095424;28;20043;-70
2021/12/30 03:04:44;;;;;;;46.88;9.13;;;7.60;99.90;;;;;;5094347;28;20502;-70
2021/12/30 03:07:09;;;;;;;39.20;9.60;;;7.70;99.90;;;;;;5094363;28;20039;-70
2021/12/30 03:09:35;;;;;;;57.35;11.15;;;7.70;99.90;;;;;;5096050;28;20426;-70
2021/12/30 03:12:01;;;;;;;64.97;12.02;;;7.70;99.90;;;;;;5095421;28;20028;-70
2021/12/30 03:14:28;;;;;;;56.35;12.70;;;7.70;99.90;;;;;;5095142;28;20419;-70
2021/12/30 03:16:54;;;;;;;63.97;12.45;;;7.80;99.90;;;;;;5094137;28;20063;-70
2021/12/30 03:19:19;;;;;;;57.80;13.88;;;7.80;99.90;;;;;;5094481;28;20549;-70
2021/12/30 03:21:46;;;;;;;65.50;13.73;;;7.90;99.90;;;;;;5095298;28;20040;-70
2021/12/30 03:24:11;;;;;;;69.28;12.38;;;8.00;99.90;;;;;;5094162;28;20043;-70
2021/12/30 03:26:37;;;;;;;63.83;13.85;;;8.10;99.90;;;;;;5094984;28;20456;-70
2021/12/30 03:29:04;;;;;;;64.05;14.07;;;8.10;99.90;;;;;;5095083;28;20115;-70
2021/12/30 03:31:29;;;;;;;74.45;15.40;;;8.10;99.90;;;;;;5094300;28;20036;-70
2021/12/30 03:33:55;;;;;;;62.03;13.57;;;8.10;99.90;;;;;;5094320;28;20469;-70
2021/12/30 03:36:22;;;;;;;65.70;13.82;;;8.10;99.90;;;;;;5094318;28;20042;-70
2021/12/30 03:38:51;;;;;;;68.25;14.13;;;8.10;99.90;;;;;;5095543;28;20040;-70
2021/12/30 03:41:22;;;;;;;57.30;14.95;;;8.10;99.90;;;;;;5094882;28;20092;-70
2021/12/30 03:43:48;;;;;;;63.63;13.63;;;8.10;99.90;;;;;;5095297;28;20036;-70
2021/12/30 03:46:14;;;;;;;72.78;15.98;;;8.10;99.90;;;;;;5094440;28;20065;-70
2021/12/30 03:48:43;;;;;;;67.82;14.93;;;8.10;99.90;;;;;;5095049;28;20040;-70
2021/12/30 03:51:20;;;;;;;55.47;14.55;;;8.20;99.90;;;;;;5094753;28;20368;-70
2021/12/30 03:53:49;;;;;;;57.08;16.05;;;8.20;99.90;;;;;;5094813;28;20036;-70
2021/12/30 03:56:17;;;;;;;57.80;14.50;;;8.20;99.90;;;;;;5094319;28;20032;-70
2021/12/30 03:58:44;;;;;;;65.03;15.77;;;8.20;99.90;;;;;;5094487;28;20048;-70
2021/12/30 04:01:12;;;;;;;54.85;16.17;;;8.10;99.90;;;;;;5094919;28;20040;-70
2021/12/30 04:03:37;;;;;;;66.82;15.90;;;8.20;99.90;;;;;;5094344;28;20040;-70
2021/12/30 04:06:03;;;;;;;51.88;14.25;;;8.10;99.90;;;;;;5094124;28;20042;-70
2021/12/30 04:08:29;;;;;;;66.20;14.90;;;8.10;99.90;;;;;;5093160;28;20052;-70
2021/12/30 04:10:57;;;;;;;64.03;15.15;;;8.10;99.90;;;;;;5094704;28;20040;-70
2021/12/30 04:13:23;;;;;;;63.65;15.20;;;8.10;99.90;;;;;;5094081;28;20494;-70
2021/12/30 04:15:49;;;;;;;51.65;14.52;;;8.10;99.90;;;;;;5093372;28;20032;-70
2021/12/30 04:18:15;;;;;;;65.55;16.70;;;8.10;99.90;;;;;;5093586;28;20036;-70
2021/12/30 04:20:40;;;;;;;60.97;16.05;;;8.10;99.90;;;;;;5093401;28;20036;-70
2021/12/30 04:23:07;;;;;;;70.35;17.27;;;8.10;99.90;;;;;;5093125;28;20130;-70
2021/12/30 04:25:34;;;;;;;67.32;17.85;;;8.10;99.90;;;;;;5093844;28;20491;-70
2021/12/30 04:28:00;;;;;;;60.88;17.80;;;8.20;99.90;;;;;;5092773;28;20059;-70
2021/12/30 04:30:26;;;;;;;66.13;16.95;;;8.20;99.90;;;;;;5094332;28;20067;-70
2021/12/30 04:32:52;;;;;;;61.65;18.13;;;8.20;99.90;;;;;;5094413;28;20040;-70
2021/12/30 04:35:18;;;;;;;71.57;17.75;;;8.20;99.90;;;;;;5093897;28;20062;-70
2021/12/30 04:37:44;;;;;;;82.18;19.52;;;8.20;99.90;;;;;;5093212;28;20044;-70
2021/12/30 04:40:11;;;;;;;51.08;16.67;;;8.20;99.90;;;;;;5094079;28;20122;-70
2021/12/30 04:42:37;;;;;;;81.05;20.33;;;8.30;99.90;;;;;;5094185;28;20044;-70
2021/12/30 04:45:04;;;;;;;66.60;18.23;;;8.30;99.90;;;;;;5093741;28;20085;-70
2021/12/30 04:47:29;;;;;;;68.90;18.05;;;8.30;99.90;;;;;;5091872;28;20046;-70
2021/12/30 04:49:57;;;;;;;71.35;19.85;;;8.30;99.90;;;;;;5075539;28;20043;-70
2021/12/30 04:52:23;;;;;;;72.53;17.65;;;8.40;99.90;;;;;;5092709;28;20040;-70
2021/12/30 04:54:49;;;;;;;75.78;19.20;;;8.40;99.90;;;;;;5093246;28;20035;-70
2021/12/30 04:57:15;;;;;;;66.10;16.67;;;8.30;99.90;;;;;;5093266;28;20068;-70
2021/12/30 04:59:41;;;;;;;62.20;16.48;;;8.30;99.90;;;;;;5094318;28;20405;-70
2021/12/30 05:02:06;;;;;;;80.40;19.65;;;8.40;99.90;;;;;;5093060;28;20051;-70
2021/12/30 05:04:32;;;;;;;79.07;20.52;;;8.40;99.90;;;;;;5093402;28;20044;-70
2021/12/30 05:06:57;;;;;;;63.08;17.45;;;8.50;99.90;;;;;;5093203;28;20043;-70
2021/12/30 05:09:23;;;;;;;66.85;17.08;;;8.50;99.90;;;;;;5093931;28;20032;-70
2021/12/30 05:11:49;;;;;;;69.57;17.95;;;8.60;99.90;;;;;;5093364;28;20121;-71
2021/12/30 05:14:14;;;;;;;69.93;18.83;;;8.60;99.90;;;;;;5093492;28;20036;-71
2021/12/30 05:16:40;;;;;;;66.97;18.98;;;8.60;99.90;;;;;;5091723;28;20115;-71
2021/12/30 05:19:06;;;;;;;68.05;18.52;;;8.70;99.90;;;;;;5093427;28;20097;-71
2021/12/30 05:21:32;;;;;;;70.80;18.85;;;8.70;99.90;;;;;;5093346;28;20047;-71
2021/12/30 05:23:57;;;;;;;69.15;20.52;;;8.70;99.90;;;;;;5093418;28;20035;-71
2021/12/30 05:26:27;;;;;;;99.70;26.10;;;8.80;99.90;;;;;;5093110;28;20032;-70
2021/12/30 05:28:57;;;;;;;88.38;24.13;;;8.80;99.90;;;;;;5093682;28;20113;-71
2021/12/30 05:31:22;;;;;;;74.88;21.45;;;8.90;99.90;;;;;;5094468;28;20052;-70
2021/12/30 05:33:48;;;;;;;89.18;24.63;;;9.00;99.90;;;;;;5095843;28;20047;-70
2021/12/30 05:36:14;;;;;;;92.07;25.30;;;9.00;99.90;;;;;;5096897;28;20067;-71
2021/12/30 05:38:39;;;;;;;84.03;25.15;;;9.10;99.90;;;;;;5097174;28;20093;-70
2021/12/30 05:41:05;;;;;;;85.45;24.48;;;9.10;99.90;;;;;;5096085;28;20399;-70
2021/12/30 05:43:31;;;;;;;81.00;24.20;;;9.20;99.90;;;;;;5097613;28;20039;-70
2021/12/30 05:45:57;;;;;;;85.05;23.90;;;9.30;99.90;;;;;;5096937;28;20422;-70
2021/12/30 05:48:22;;;;;;;81.32;24.52;;;9.30;99.90;;;;;;5096717;28;20044;-70
2021/12/30 05:50:48;;;;;;;87.45;22.70;;;9.30;99.90;;;;;;5095854;28;20048;-69
2021/12/30 05:53:14;;;;;;;90.07;23.95;;;9.40;99.90;;;;;;5097292;28;20051;-70
2021/12/30 05:55:40;;;;;;;64.13;19.33;;;9.40;99.90;;;;;;5096924;28;20036;-71
2021/12/30 05:58:05;;;;;;;64.18;21.27;;;9.40;99.90;;;;;;5096637;28;20430;-71
2021/12/30 06:00:32;;;;;;;64.53;20.73;;;9.40;99.90;;;;;;5097342;28;20147;-70
2021/12/30 06:02:59;;;;;;;54.10;18.60;;;9.50;99.90;;;;;;5096737;28;20119;-71
2021/12/30 06:05:25;;;;;;;70.43;20.45;;;9.50;99.90;;;;;;5096615;28;20043;-71
2021/12/30 06:07:51;;;;;;;51.78;18.45;;;9.60;99.90;;;;;;5096235;28;20038;-69
2021/12/30 06:10:17;;;;;;;45.95;16.00;;;9.60;99.90;;;;;;5097088;28;20047;-69
2021/12/30 06:12:43;;;;;;;45.85;15.48;;;9.60;99.90;;;;;;5078428;28;20079;-69
2021/12/30 06:15:10;;;;;;;50.38;16.80;;;9.70;99.90;;;;;;5095530;28;20044;-69
2021/12/30 06:17:37;;;;;;;36.25;14.73;;;9.70;99.90;;;;;;5094636;28;20132;-69
2021/12/30 06:20:08;;;;;;;43.03;15.70;;;9.70;99.90;;;;;;5095307;28;20595;-69
2021/12/30 06:22:34;;;;;;;36.08;14.00;;;9.70;99.90;;;;;;5096758;28;20044;-69
2021/12/30 06:24:59;;;;;;;47.92;14.88;;;9.80;99.90;;;;;;5078058;28;20039;-69
2021/12/30 06:27:25;;;;;;;41.60;14.32;;;9.80;99.90;;;;;;5095719;28;20032;-69
2021/12/30 06:29:51;;;;;;;55.35;16.10;;;9.80;99.90;;;;;;5096159;28;20123;-69
2021/12/30 06:32:16;;;;;;;45.63;15.60;;;9.80;99.90;;;;;;5095936;28;20036;-69
2021/12/30 06:34:42;;;;;;;51.95;18.15;;;9.90;99.90;;;;;;5096172;28;20039;-69
2021/12/30 06:37:08;;;;;;;45.90;17.13;;;9.90;99.90;;;;;;5095668;28;20488;-69
2021/12/30 06:39:33;;;;;;;60.83;19.55;;;9.90;99.90;;;;;;5096216;28;20032;-69
2021/12/30 06:42:00;;;;;;;67.38;20.55;;;9.90;99.90;;;;;;5095605;28;20048;-69
2021/12/30 06:44:26;;;;;;;59.60;21.17;;;9.90;99.90;;;;;;5095896;28;20124;-70
2021/12/30 06:46:58;;;;;;;73.60;24.23;;;10.00;99.90;;;;;;5095473;28;20114;-69
2021/12/30 06:49:25;;;;;;;81.38;24.75;;;10.00;99.90;;;;;;5094835;28;20051;-70
2021/12/30 06:51:51;;;;;;;92.03;26.38;;;10.00;99.90;;;;;;5078062;28;20040;-70
2021/12/30 06:54:17;;;;;;;91.78;26.80;;;10.00;99.90;;;;;;5094548;28;20055;-70
2021/12/30 06:56:43;;;;;;;102.32;30.05;;;10.10;99.90;;;;;;5095559;28;20039;-69
2021/12/30 06:59:14;;;;;;;104.60;29.05;;;10.10;99.90;;;;;;5094345;28;20028;-70
2021/12/30 07:01:41;;;;;;;74.15;23.88;;;10.10;99.90;;;;;;5095705;28;20063;-69
2021/12/30 07:04:07;;;;;;;103.95;30.38;;;10.10;99.90;;;;;;5095903;28;20065;-69
2021/12/30 07:06:33;;;;;;;96.40;28.08;;;10.10;99.90;;;;;;5077156;28;20032;-69
2021/12/30 07:08:58;;;;;;;91.53;26.65;;;10.10;99.90;;;;;;5095047;28;20040;-69
2021/12/30 07:11:24;;;;;;;87.35;24.50;;;10.10;99.90;;;;;;5095207;28;20113;-69
2021/12/30 07:13:49;;;;;;;86.28;26.98;;;10.10;99.90;;;;;;5095617;28;20028;-69
2021/12/30 07:16:15;;;;;;;85.43;25.45;;;10.10;99.90;;;;;;5095477;28;20039;-69
2021/12/30 07:18:41;;;;;;;87.22;25.73;;;10.20;99.90;;;;;;5094143;28;20043;-70
2021/12/30 07:21:06;;;;;;;90.60;24.58;;;10.30;99.90;;;;;;5095491;28;20396;-70
2021/12/30 07:23:32;;;;;;;83.20;25.35;;;10.20;99.90;;;;;;5095683;28;20480;-70
2021/12/30 07:25:57;;;;;;;84.38;24.38;;;10.30;99.90;;;;;;5095047;28;20036;-70
2021/12/30 07:28:23;;;;;;;77.28;22.38;;;10.30;99.90;;;;;;5095017;28;20036;-70
2021/12/30 07:30:48;;;;;;;92.55;25.27;;;10.40;99.90;;;;;;5094790;28;20032;-70
2021/12/30 07:33:14;;;;;;;83.38;23.67;;;10.40;99.90;;;;;;5095351;28;20032;-71
2021/12/30 07:35:40;;;;;;;79.22;23.52;;;10.40;99.90;;;;;;5094629;28;20039;-70
2021/12/30 07:38:05;;;;;;;81.10;23.48;;;10.40;99.90;;;;;;5094513;28;20397;-71
2021/12/30 07:40:32;;;;;;;69.45;21.35;;;10.40;99.90;;;;;;5094160;28;20040;-71
2021/12/30 07:42:57;;;;;;;77.25;20.85;;;10.40;99.90;;;;;;5095048;28;20040;-70
2021/12/30 07:45:23;;;;;;;72.32;21.17;;;10.40;99.90;;;;;;5094858;28;20088;-70
2021/12/30 07:47:50;;;;;;;70.22;20.63;;;10.50;99.90;;;;;;5092840;28;20054;-70
2021/12/30 07:50:16;;;;;;;60.92;18.52;;;10.50;99.90;;;;;;5094414;28;20559;-70
2021/12/30 07:52:42;;;;;;;56.33;17.95;;;10.50;99.90;;;;;;5094183;28;20361;-70
2021/12/30 07:55:10;;;;;;;59.35;17.75;;;10.50;99.90;;;;;;5094462;28;20035;-71
2021/12/30 07:57:36;;;;;;;56.28;17.02;;;10.50;99.90;;;;;;5093237;28;20067;-71
2021/12/30 08:00:06;;;;;;;52.15;16.52;;;10.60;99.90;;;;;;5093140;28;20060;-70
2021/12/30 08:02:31;;;;;;;46.80;15.00;;;10.50;99.90;;;;;;5093677;28;20135;-71
2021/12/30 08:04:57;;;;;;;59.22;17.25;;;10.60;99.90;;;;;;5094907;28;20437;-71
2021/12/30 08:07:24;;;;;;;52.60;14.65;;;10.60;99.90;;;;;;5093877;28;20040;-70
2021/12/30 08:09:50;;;;;;;54.60;15.27;;;10.60;99.90;;;;;;5075952;28;20061;-69
2021/12/30 08:12:16;;;;;;;51.88;15.93;;;10.60;99.90;;;;;;5094658;28;20110;-69
2021/12/30 08:14:42;;;;;;;38.33;12.25;;;10.60;99.90;;;;;;5094212;28;20492;-69
2021/12/30 08:17:08;;;;;;;41.05;12.05;;;10.70;99.90;;;;;;5094146;28;20048;-68
2021/12/30 08:19:34;;;;;;;41.53;11.15;;;10.70;99.90;;;;;;5094915;28;20032;-69
2021/12/30 08:22:00;;;;;;;24.45;8.90;;;10.70;99.90;;;;;;5094136;28;20036;-69
2021/12/30 08:24:29;;;;;;;25.08;8.75;;;10.70;99.90;;;;;;5094142;28;20113;-69
2021/12/30 08:26:55;;;;;;;25.48;8.57;;;10.80;99.90;;;;;;5093909;28;20044;-69
2021/12/30 08:29:21;;;;;;;15.90;6.25;;;10.80;99.90;;;;;;5094083;28;20039;-69
2021/12/30 08:31:47;;;;;;;13.43;5.07;;;10.90;99.90;;;;;;5094055;28;20039;-69
2021/12/30 08:34:13;;;;;;;9.85;4.45;;;10.90;99.90;;;;;;5094576;28;20495;-69
2021/12/30 08:36:39;;;;;;;10.95;4.22;;;10.90;99.90;;;;;;5093157;28;20162;-69
2021/12/30 08:39:05;;;;;;;11.68;4.47;;;11.00;99.90;;;;;;5094619;28;20054;-69
2021/12/30 08:41:31;;;;;;;11.05;4.20;;;11.00;99.90;;;;;;5103556;28;20533;-69
2021/12/30 08:43:56;;;;;;;8.85;3.97;;;11.00;99.90;;;;;;5092477;28;20123;-69
2021/12/30 08:46:22;;;;;;;8.63;3.95;;;11.00;99.90;;;;;;5092531;28;20040;-69
2021/12/30 08:48:48;;;;;;;10.77;3.47;;;11.10;99.90;;;;;;5093517;28;20040;-69
2021/12/30 08:51:13;;;;;;;5.85;3.28;;;11.10;99.90;;;;;;5105222;28;20032;-69
2021/12/30 08:53:40;;;;;;;7.07;3.65;;;11.10;99.90;;;;;;5111314;28;20094;-69
2021/12/30 08:56:08;;;;;;;9.38;4.75;;;11.10;99.90;;;;;;5113978;28;20116;-69
2021/12/30 08:58:35;;;;;;;14.30;5.78;;;11.20;99.90;;;;;;5113658;28;20035;-69
2021/12/30 09:01:01;;;;;;;19.95;9.25;;;11.20;99.90;;;;;;5113836;28;20038;-69
2021/12/30 09:03:27;;;;;;;19.77;8.15;;;11.20;99.90;;;;;;5114449;28;20047;-69
2021/12/30 09:05:52;;;;;;;24.23;10.18;;;11.30;99.90;;;;;;5111310;28;20079;-69
2021/12/30 09:08:18;;;;;;;23.08;10.25;;;11.30;99.90;;;;;;5104347;28;20055;-69
2021/12/30 09:10:45;;;;;;;24.52;9.95;;;11.40;99.90;;;;;;5108739;28;20044;-69
2021/12/30 09:13:14;;;;;;;29.90;11.68;;;11.50;99.90;;;;;;5112575;28;20477;-69
2021/12/30 09:15:40;;;;;;;24.92;12.20;;;11.40;99.90;;;;;;5112307;28;20085;-69
2021/12/30 09:18:06;;;;;;;31.90;14.68;;;11.50;99.90;;;;;;5109393;28;20047;-69
2021/12/30 09:20:33;;;;;;;26.08;13.70;;;11.50;99.90;;;;;;5102763;28;20088;-68
2021/12/30 09:22:58;;;;;;;27.60;13.80;;;11.60;99.90;;;;;;5104050;28;20052;-69
2021/12/30 09:25:25;;;;;;;35.50;15.13;;;11.70;99.90;;;;;;5102076;28;20038;-68
2021/12/30 09:27:53;;;;;;;34.13;15.80;;;11.60;99.90;;;;;;5103321;28;20158;-69
2021/12/30 09:30:19;;;;;;;35.22;15.77;;;11.70;99.90;;;;;;5103002;28;20040;-70
2021/12/30 09:32:48;;;;;;;32.83;16.55;;;11.80;99.90;;;;;;5101461;28;20573;-69
2021/12/30 09:35:15;;;;;;;33.63;15.80;;;11.80;99.90;;;;;;5093807;28;20040;-69
2021/12/30 09:37:41;;;;;;;28.98;12.13;;;11.90;99.90;;;;;;5092708;28;20044;-69
2021/12/30 09:40:13;;;;;;;32.60;14.10;;;11.80;99.90;;;;;;5093149;28;20082;-69
2021/12/30 09:42:48;;;;;;;23.50;11.18;;;11.70;99.90;;;;;;5075153;28;20389;-69
2021/12/30 09:45:14;;;;;;;25.83;11.02;;;11.80;99.90;;;;;;5091865;28;20044;-69
2021/12/30 09:47:53;;;;;;;25.17;11.35;;;11.80;99.90;;;;;;5092373;28;20040;-69
2021/12/30 09:50:24;;;;;;;22.10;11.48;;;11.90;99.90;;;;;;5091558;28;20040;-69
2021/12/30 09:52:50;;;;;;;20.15;10.77;;;11.90;99.90;;;;;;5093302;28;20079;-69
2021/12/30 09:55:17;;;;;;;23.30;10.88;;;11.90;99.90;;;;;;5092901;28;20194;-69
2021/12/30 09:57:42;;;;;;;23.77;10.77;;;11.90;99.90;;;;;;5092667;28;20040;-69
2021/12/30 10:00:12;;;;;;;25.45;12.43;;;11.90;99.90;;;;;;5082519;28;20088;-70
2021/12/30 10:02:40;;;;;;;30.17;13.40;;;12.00;99.90;;;;;;5100655;28;20048;-70
2021/12/30 10:05:16;;;;;;;33.03;12.77;;;12.00;99.90;;;;;;5102443;28;20359;-70
2021/12/30 10:07:42;;;;;;;25.55;13.02;;;12.00;99.90;;;;;;5100432;28;20096;-69
2021/12/30 10:10:31;;;;;;;33.40;14.00;;;12.00;99.90;;;;;;5092889;28;20040;-69
2021/12/30 10:12:58;;;;;;;27.10;14.18;;;12.00;99.90;;;;;;5091681;28;20067;-69
2021/12/30 10:15:26;;;;;;;43.83;15.55;;;12.10;99.90;;;;;;5096458;28;20036;-69
2021/12/30 10:18:01;;;;;;;33.92;15.75;;;12.00;99.90;;;;;;5094927;28;20047;-69
2021/12/30 10:20:31;;;;;;;41.17;17.17;;;12.00;99.90;;;;;;5106819;28;20051;-69
2021/12/30 10:23:08;;;;;;;40.72;16.38;;;12.00;99.90;;;;;;5098770;28;20048;-69
2021/12/30 10:25:37;;;;;;;41.72;17.33;;;12.00;99.90;;;;;;5096037;28;20044;-70
2021/12/30 10:28:40;;;;;;;38.75;16.05;;;12.00;99.90;;;;;;5096796;28;20036;-69
2021/12/30 10:31:11;;;;;;;36.95;15.65;;;12.00;99.90;;;;;;5056909;28;20052;-69
2021/12/30 10:33:46;;;;;;;32.28;14.93;;;12.00;99.90;;;;;;5092280;28;20108;-69
2021/12/30 10:36:35;;;;;;;42.83;14.02;;;12.00;99.90;;;;;;5077502;28;20047;-69
2021/12/30 10:39:20;;;;;;;37.25;14.32;;;12.00;99.90;;;;;;5096066;28;20096;-69
2021/12/30 10:41:49;;;;;;;29.25;13.63;;;12.00;99.90;;;;;;5101586;28;20123;-68
2021/12/30 10:44:15;;;;;;;36.90;14.23;;;12.00;99.90;;;;;;5116440;28;20039;-68
2021/12/30 10:46:41;;;;;;;37.83;14.00;;;12.00;99.90;;;;;;5115692;28;20032;-68
2021/12/30 10:49:18;;;;;;;34.95;12.07;;;12.00;99.90;;;;;;5116336;27;20051;-68
2021/12/30 10:51:48;;;;;;;32.45;12.27;;;12.00;99.90;;;;;;5116665;28;20055;-68
2021/12/30 10:54:32;;;;;;;44.67;14.25;;;12.00;99.90;;;;;;5114840;28;20036;-69
2021/12/30 10:57:02;;;;;;;36.25;13.52;;;12.00;99.90;;;;;;5114249;28;20039;-68
2021/12/30 10:59:33;;;;;;;36.90;13.10;;;11.90;99.90;;;;;;5115357;28;20357;-69
2021/12/30 11:02:08;;;;;;;40.55;13.80;;;12.00;99.90;;;;;;5115372;28;20472;-69
2021/12/30 11:04:49;;;;;;;42.67;13.93;;;12.00;99.90;;;;;;5116434;28;20032;-69
2021/12/30 11:07:27;;;;;;;38.97;13.75;;;11.90;99.90;;;;;;5115682;28;20127;-69
2021/12/30 11:09:55;;;;;;;47.58;16.63;;;12.00;99.90;;;;;;5109910;28;20036;-69
2021/12/30 11:12:26;;;;;;;48.40;14.55;;;12.00;99.90;;;;;;5105028;28;20084;-69
2021/12/30 11:14:53;;;;;;;46.67;14.55;;;12.00;99.90;;;;;;5097437;28;20354;-69
2021/12/30 11:17:23;;;;;;;42.60;15.68;;;12.00;99.90;;;;;;5094864;28;20043;-70
2021/12/30 11:19:56;;;;;;;56.13;17.10;;;12.00;99.90;;;;;;5095023;28;20127;-70
2021/12/30 11:22:25;;;;;;;43.30;15.18;;;12.00;99.90;;;;;;5095494;28;20044;-70
2021/12/30 11:24:53;;;;;;;59.40;14.55;;;12.00;99.90;;;;;;5095171;28;20407;-70
2021/12/30 11:27:20;;;;;;;63.08;15.40;;;12.10;99.90;;;;;;5094621;28;20486;-70
2021/12/30 11:29:49;;;;;;;60.50;15.30;;;12.00;99.90;;;;;;5094379;28;20047;-70
2021/12/30 11:32:19;;;;;;;54.95;15.27;;;11.90;99.90;;;;;;5095089;28;20150;-69
2021/12/30 11:34:46;;;;;;;68.32;17.88;;;11.90;99.90;;;;;;5094048;28;20044;-70
2021/12/30 11:37:14;;;;;;;47.67;14.90;;;11.90;99.90;;;;;;5094421;28;20082;-69
2021/12/30 11:39:45;;;;;;;57.28;16.48;;;11.90;99.90;;;;;;5093812;28;20051;-69
2021/12/30 11:42:17;;;;;;;68.93;16.73;;;12.00;99.90;;;;;;5100729;28;20059;-69
2021/12/30 11:44:49;;;;;;;57.78;16.92;;;11.90;99.90;;;;;;5103129;28;20442;-69
2021/12/30 11:47:35;;;;;;;56.63;15.80;;;11.90;99.90;;;;;;5101214;28;20128;-70
2021/12/30 11:50:04;;;;;;;46.38;17.15;;;11.90;99.90;;;;;;5103236;28;20093;-69
2021/12/30 11:52:57;;;;;;;60.85;15.60;;;12.00;99.90;;;;;;5114571;28;20035;-69
2021/12/30 11:55:44;;;;;;;59.08;15.45;;;11.90;99.90;;;;;;5115142;28;20134;-70
2021/12/30 12:01:11;;;;;;;58.80;16.38;;;12.00;99.90;;;;;;5113342;28;20062;-70
2021/12/30 12:03:48;;;;;;;58.55;15.45;;;12.00;99.90;;;;;;5115028;28;20047;-69
2021/12/30 12:06:26;;;;;;;57.13;14.63;;;12.00;99.90;;;;;;5113261;28;20027;-70
2021/12/30 12:09:11;;;;;;;52.72;13.82;;;12.00;99.90;;;;;;5115024;28;20443;-70
2021/12/30 12:11:40;;;;;;;66.45;14.50;;;12.00;99.90;;;;;;5096245;28;20052;-68
2021/12/30 12:14:17;;;;;;;54.67;14.20;;;12.00;99.90;;;;;;5093714;28;20051;-68
2021/12/30 12:17:19;;;;;;;44.25;12.98;;;12.10;99.90;;;;;;5093713;28;20039;-68
2021/12/30 12:19:50;;;;;;;48.97;13.13;;;12.10;99.90;;;;;;5105658;28;20086;-68
2021/12/30 12:22:18;;;;;;;63.92;13.75;;;12.10;99.90;;;;;;5110576;28;20040;-68
2021/12/30 12:25:08;;;;;;;51.47;13.75;;;12.00;99.90;;;;;;5110471;28;20039;-69
2021/12/30 12:27:37;;;;;;;53.17;13.90;;;12.10;99.90;;;;;;5113741;28;20058;-68
2021/12/30 12:30:06;;;;;;;52.80;15.57;;;12.00;99.90;;;;;;5114403;28;20070;-69
2021/12/30 12:32:34;;;;;;;54.40;13.25;;;12.10;99.90;;;;;;5114357;28;20111;-68
2021/12/30 12:35:14;;;;;;;59.60;13.80;;;12.10;99.90;;;;;;5114190;28;20036;-69
2021/12/30 12:37:44;;;;;;;45.50;13.15;;;12.10;99.90;;;;;;5110884;28;20075;-69
2021/12/30 12:40:16;;;;;;;45.97;13.40;;;12.10;99.90;;;;;;5094517;28;20055;-69
2021/12/30 12:42:53;;;;;;;65.35;13.63;;;12.10;99.90;;;;;;5110664;28;20483;-68